createdAt,value
2023-02-22T06:03:39.472Z,500.00
2023-02-22T07:23:21.101Z,501.00
2023-02-22T07:26:21.262Z,508.00
2023-02-22T07:27:21.350Z,504.00
2023-02-22T07:29:21.529Z,507.00
2023-02-22T07:30:21.638Z,506.00
2023-02-22T07:32:21.758Z,502.00
2023-02-22T07:33:21.679Z,500.00
2023-02-22T07:34:21.715Z,505.00
2023-02-22T07:35:21.758Z,502.00
2023-02-22T07:36:21.800Z,503.00
2023-02-22T07:38:21.924Z,504.00
2023-02-22T07:39:22.030Z,504.00
2023-02-22T07:40:22.156Z,508.00
2023-02-22T07:41:22.110Z,509.00
2023-02-22T07:42:21.180Z,507.00
2023-02-22T07:43:22.256Z,501.00
2023-02-22T07:44:21.313Z,501.00
2023-02-22T07:45:22.424Z,504.00
2023-02-22T07:46:21.403Z,508.00
2023-02-22T07:47:22.653Z,507.00
2023-02-22T07:51:00.083Z,500.00
2023-02-22T07:52:01.097Z,500.00
2023-02-22T07:53:00.927Z,500.00
2023-02-22T07:55:01.087Z,500.00
2023-02-22T07:56:00.895Z,500.00
2023-02-22T07:57:01.023Z,500.00
2023-02-22T07:58:01.054Z,504.00
2023-02-22T07:59:00.225Z,500.00
2023-02-22T08:00:00.967Z,502.00
2023-02-22T08:01:01.001Z,500.00
2023-02-22T08:02:00.973Z,500.00
2023-02-22T08:03:01.156Z,507.00
2023-02-22T08:04:02.528Z,506.00
2023-02-22T08:05:59.869Z,509.00
2023-02-22T08:07:01.047Z,503.00
2023-02-22T08:08:00.913Z,509.00
2023-02-22T08:09:00.928Z,503.00
2023-02-22T08:10:00.995Z,502.00
2023-02-22T08:10:59.920Z,502.00
2023-02-22T08:12:14.100Z,500.00
2023-02-22T08:13:00.999Z,501.00
2023-02-22T08:40:22.075Z,503.00
2023-02-22T08:44:21.274Z,501.00
2023-02-22T08:45:21.171Z,507.00
2023-02-22T08:47:21.316Z,509.00
2023-02-22T08:50:21.763Z,501.00
2023-02-22T08:51:21.392Z,503.00
2023-02-22T08:52:21.448Z,508.00
2023-02-22T08:53:21.510Z,508.00
2023-02-22T08:54:21.684Z,510.00
2023-02-22T08:55:21.806Z,508.00
2023-02-22T08:56:21.651Z,507.00
2023-02-22T08:57:21.922Z,504.00
2023-02-22T08:58:21.645Z,505.00
2023-02-22T08:59:21.681Z,510.00
2023-02-22T09:00:21.719Z,516.00
2023-02-22T09:02:21.813Z,526.00
2023-02-22T09:03:21.851Z,525.00
2023-02-22T09:04:21.867Z,524.00
2023-02-22T09:05:21.878Z,528.00
2023-02-22T09:06:22.169Z,534.00
2023-02-22T09:09:21.907Z,539.00
2023-02-22T09:10:21.913Z,535.00
2023-02-22T09:12:21.910Z,540.00
2023-02-22T09:13:21.928Z,547.00
2023-02-22T09:15:40.463Z,500.00
2023-02-22T09:19:41.913Z,500.00
2023-02-22T09:25:41.672Z,500.00
2023-02-22T09:31:03.125Z,500.00
2023-02-22T09:39:14.420Z,500.00
2023-02-22T09:41:36.043Z,500.00
2023-02-22T09:42:33.784Z,500.00
2023-02-22T09:43:33.833Z,500.00
2023-02-22T09:44:33.690Z,500.00
2023-02-22T09:45:32.844Z,500.00
2023-02-22T09:46:33.707Z,500.00
2023-02-22T09:47:33.716Z,500.00
2023-02-22T09:48:33.658Z,499.00
2023-02-22T09:49:33.644Z,499.00
2023-02-22T09:50:33.883Z,500.00
2023-02-22T09:51:33.637Z,500.00
2023-02-22T09:52:32.644Z,500.00
2023-02-22T09:53:32.661Z,500.00
2023-02-22T09:54:33.618Z,500.00
2023-02-22T09:55:33.625Z,500.00
2023-02-22T09:56:33.609Z,500.00
2023-02-22T09:57:33.599Z,501.00
2023-02-22T09:58:32.579Z,501.00
2023-02-22T09:59:32.619Z,501.00
2023-02-22T10:00:32.587Z,500.00
2023-02-22T10:01:32.658Z,502.00
2023-02-22T10:02:32.593Z,507.00
2023-02-22T10:03:32.617Z,505.00
2023-02-22T10:04:32.563Z,504.00
2023-02-22T10:05:32.676Z,501.00
2023-02-22T10:06:33.548Z,500.00
2023-02-22T10:07:33.534Z,503.00
2023-02-22T10:08:33.535Z,500.00
2023-02-22T10:09:33.538Z,500.00
2023-02-22T10:10:33.602Z,500.00
2023-02-22T10:11:32.647Z,502.00
2023-02-22T10:12:32.636Z,501.00
2023-02-22T10:13:33.658Z,500.00
2023-02-22T10:14:33.690Z,502.00
2023-02-22T10:15:32.722Z,500.00
2023-02-22T10:16:32.778Z,502.00
2023-02-22T10:17:32.823Z,503.00
2023-02-22T10:18:33.941Z,501.00
2023-02-22T10:19:32.877Z,501.00
2023-02-22T10:20:33.946Z,500.00
2023-02-22T10:21:33.903Z,502.00
2023-02-22T10:22:32.906Z,501.00
2023-02-22T10:23:32.945Z,501.00
2023-02-22T10:24:33.913Z,502.00
2023-02-22T10:25:33.926Z,503.00
2023-02-22T10:26:32.924Z,502.00
2023-02-22T10:27:33.942Z,502.00
2023-02-22T10:28:33.922Z,504.00
2023-02-22T10:29:33.941Z,503.00
2023-02-22T10:30:34.608Z,504.00
2023-02-22T10:31:34.075Z,500.00
2023-02-22T10:32:34.146Z,500.00
2023-02-22T10:33:33.994Z,500.00
2023-02-22T10:34:33.998Z,504.00
2023-02-22T10:35:33.994Z,504.00
2023-02-22T10:36:33.993Z,503.00
2023-02-22T10:37:34.082Z,502.00
2023-02-22T10:38:34.033Z,503.00
2023-02-22T10:39:34.120Z,505.00
2023-02-22T10:40:33.071Z,506.00
2023-02-22T10:41:33.026Z,506.00
2023-02-22T10:42:34.019Z,505.00
2023-02-22T10:43:34.023Z,503.00
2023-02-22T10:44:34.036Z,501.00
2023-02-22T10:45:34.048Z,504.00
2023-02-22T10:46:34.009Z,502.00
2023-02-22T10:47:34.023Z,504.00
2023-02-22T10:48:34.014Z,503.00
2023-02-22T10:49:34.031Z,503.00
2023-02-22T10:50:34.439Z,502.00
2023-02-22T10:51:34.071Z,506.00
2023-02-22T10:52:34.192Z,504.00
2023-02-22T10:53:36.389Z,512.00
2023-02-22T10:54:34.102Z,522.00
2023-02-22T10:55:34.160Z,549.00
2023-02-22T10:56:34.078Z,546.00
2023-02-22T10:57:34.066Z,548.00
2023-02-22T10:58:33.062Z,545.00
2023-02-22T10:59:34.061Z,556.00
2023-02-22T11:00:34.042Z,560.00
2023-02-22T11:01:34.105Z,567.00
2023-02-22T11:02:33.265Z,568.00
2023-02-22T11:03:33.030Z,570.00
2023-02-22T11:04:33.022Z,574.00
2023-02-22T11:05:34.002Z,581.00
2023-02-22T11:06:34.038Z,584.00
2023-02-22T11:07:33.996Z,588.00
2023-02-22T11:08:33.987Z,592.00
2023-02-22T11:09:33.969Z,593.00
2023-02-22T11:10:34.029Z,597.00
2023-02-22T11:11:32.975Z,600.00
2023-02-22T11:12:32.980Z,600.00
2023-02-22T11:13:34.051Z,599.00
2023-02-22T11:14:33.933Z,600.00
2023-02-22T11:15:34.010Z,608.00
2023-02-22T11:16:33.087Z,607.00
2023-02-22T11:17:33.923Z,606.00
2023-02-22T11:18:33.942Z,605.00
2023-02-22T11:19:33.018Z,605.00
2023-02-22T11:20:33.924Z,611.00
2023-02-22T11:21:32.929Z,607.00
2023-02-22T11:22:33.935Z,613.00
2023-02-22T11:23:33.917Z,618.00
2023-02-22T11:24:48.423Z,610.00
2023-02-22T11:25:33.901Z,611.00
2023-02-22T11:26:33.900Z,612.00
2023-02-22T11:27:33.899Z,613.00
2023-02-22T11:28:33.892Z,620.00
2023-02-22T11:29:33.942Z,618.00
2023-02-22T11:30:34.144Z,619.00
2023-02-22T11:31:33.885Z,624.00
2023-02-22T11:32:32.841Z,622.00
2023-02-22T11:33:32.844Z,630.00
2023-02-22T11:34:33.823Z,623.00
2023-02-22T11:35:33.839Z,632.00
2023-02-22T11:36:33.813Z,634.00
2023-02-22T11:37:32.803Z,630.00
2023-02-22T11:38:33.827Z,632.00
2023-02-22T11:39:33.886Z,628.00
2023-02-22T11:40:34.752Z,631.00
2023-02-22T11:41:33.931Z,629.00
2023-02-22T11:42:33.816Z,634.00
2023-02-22T11:43:32.772Z,636.00
2023-02-22T11:44:33.753Z,633.00
2023-02-22T11:45:33.804Z,637.00
2023-02-22T11:46:33.815Z,635.00
2023-02-22T11:47:33.788Z,634.00
2023-02-22T11:48:32.732Z,634.00
2023-02-22T11:49:33.741Z,636.00
2023-02-22T11:50:33.746Z,641.00
2023-02-22T11:51:33.840Z,642.00
2023-02-22T11:52:33.725Z,642.00
2023-02-22T11:53:32.697Z,642.00
2023-02-22T11:54:32.725Z,644.00
2023-02-22T11:55:42.807Z,638.00
2023-02-22T11:56:38.028Z,638.00
2023-02-22T11:57:32.991Z,639.00
2023-02-22T11:58:32.924Z,641.00
2023-02-22T11:59:32.951Z,645.00
2023-02-22T12:00:34.027Z,654.00
2023-02-22T12:01:33.034Z,660.00
2023-02-22T12:02:34.058Z,661.00
2023-02-22T12:03:33.207Z,661.00
2023-02-22T12:04:34.265Z,672.00
2023-02-22T12:05:33.306Z,666.00
2023-02-22T12:06:34.226Z,663.00
2023-02-22T12:07:34.184Z,674.00
2023-02-22T12:08:33.210Z,666.00
2023-02-22T12:09:34.217Z,666.00
2023-02-22T12:10:34.237Z,666.00
2023-02-22T12:11:34.240Z,696.00
2023-02-22T12:12:34.225Z,689.00
2023-02-22T12:13:33.246Z,700.00
2023-02-22T12:14:34.269Z,726.00
2023-02-22T12:15:33.383Z,721.00
2023-02-22T12:16:33.357Z,778.00
2023-02-22T12:17:34.309Z,828.00
2023-02-22T12:18:34.341Z,818.00
2023-02-22T12:19:34.369Z,766.00
2023-02-22T12:20:34.337Z,765.00
2023-02-22T12:21:33.411Z,760.00
2023-02-22T12:22:34.366Z,733.00
2023-02-22T12:23:34.504Z,734.00
2023-02-22T12:24:34.346Z,732.00
2023-02-22T12:25:33.342Z,732.00
2023-02-22T12:26:34.477Z,728.00
2023-02-22T12:27:34.404Z,719.00
2023-02-22T12:28:34.379Z,721.00
2023-02-22T12:29:33.374Z,733.00
2023-02-22T12:30:33.775Z,707.00
2023-02-22T12:31:34.575Z,701.00
2023-02-22T12:32:34.707Z,699.00
2023-02-22T12:33:34.618Z,674.00
2023-02-22T12:34:34.639Z,683.00
2023-02-22T12:35:34.631Z,713.00
2023-02-22T12:36:34.629Z,713.00
2023-02-22T12:37:34.649Z,713.00
2023-02-22T12:38:33.631Z,709.00
2023-02-22T12:39:47.156Z,718.00
2023-02-22T12:40:34.686Z,719.00
2023-02-22T12:41:34.678Z,719.00
2023-02-22T12:42:33.697Z,704.00
2023-02-22T12:43:34.692Z,705.00
2023-02-22T12:44:34.685Z,704.00
2023-02-22T12:45:34.755Z,701.00
2023-02-22T12:46:34.756Z,690.00
2023-02-22T12:47:33.684Z,695.00
2023-02-22T12:48:34.637Z,676.00
2023-02-22T12:49:34.674Z,681.00
2023-02-22T12:50:33.605Z,671.00
2023-02-22T12:51:33.631Z,669.00
2023-02-22T12:52:34.645Z,670.00
2023-02-22T12:53:33.637Z,665.00
2023-02-22T12:54:33.676Z,660.00
2023-02-22T12:55:34.619Z,659.00
2023-02-22T12:56:34.637Z,661.00
2023-02-22T12:57:33.629Z,656.00
2023-02-22T12:58:34.644Z,655.00
2023-02-22T12:59:34.587Z,655.00
2023-02-22T13:00:34.547Z,650.00
2023-02-22T13:01:33.606Z,651.00
2023-02-22T13:02:33.637Z,650.00
2023-02-22T13:03:33.542Z,649.00
2023-02-22T13:04:34.598Z,649.00
2023-02-22T13:05:34.594Z,645.00
2023-02-22T13:06:34.522Z,646.00
2023-02-22T13:07:34.615Z,643.00
2023-02-22T13:08:33.522Z,641.00
2023-02-22T13:09:34.496Z,639.00
2023-02-22T13:10:34.489Z,639.00
2023-02-22T13:11:34.514Z,635.00
2023-02-22T13:12:34.498Z,635.00
2023-02-22T13:13:34.463Z,633.00
2023-02-22T13:14:33.485Z,630.00
2023-02-22T13:15:34.481Z,628.00
2023-02-22T13:16:34.458Z,624.00
2023-02-22T13:17:34.445Z,625.00
2023-02-22T13:18:33.527Z,622.00
2023-02-22T13:19:33.449Z,621.00
2023-02-22T13:20:34.482Z,621.00
2023-02-22T13:21:33.421Z,619.00
2023-02-22T13:22:33.400Z,615.00
2023-02-22T13:23:34.433Z,618.00
2023-02-22T14:20:51.853Z,500.00
2023-02-22T14:21:52.729Z,500.00
2023-02-22T14:22:51.888Z,500.00
2023-02-22T14:23:52.760Z,500.00
2023-02-22T14:24:52.086Z,500.00
2023-02-22T14:25:52.703Z,500.00
2023-02-22T14:50:26.622Z,500.00
2023-02-22T14:51:27.232Z,500.00
2023-02-22T14:55:26.706Z,486.00
2023-02-22T14:58:26.930Z,500.00
2023-02-22T15:01:33.961Z,501.00
2023-02-22T15:02:27.031Z,501.00
2023-02-22T15:03:29.051Z,486.00
2023-02-22T15:04:27.020Z,481.00
2023-02-22T15:05:26.005Z,466.00
2023-02-22T15:06:26.978Z,457.00
2023-02-22T15:08:26.969Z,442.00
2023-02-22T15:09:29.606Z,484.00
